sensor_id;sensor_type;location;lat;lon;timestamp;pressure;altitude;pressure_sealevel;temperature;humidity
34586;BME280;20816;50.950;11.108;2022-09-16T00:01:53;97676.72;;;12.56;100.00
34586;BME280;20816;50.950;11.108;2022-09-16T00:04:19;97676.84;;;12.53;100.00
34586;BME280;20816;50.950;11.108;2022-09-16T00:06:46;97666.44;;;12.50;100.00
34586;BME280;20816;50.950;11.108;2022-09-16T00:09:13;97667.38;;;12.49;100.00
34586;BME280;20816;50.950;11.108;2022-09-16T00:11:39;97672.50;;;12.52;100.00
34586;BME280;20816;50.950;11.108;2022-09-16T00:14:06;97672.84;;;12.45;100.00
34586;BME280;20816;50.950;11.108;2022-09-16T00:16:33;97676.31;;;12.45;100.00
34586;BME280;20816;50.950;11.108;2022-09-16T00:18:59;97673.56;;;12.48;100.00
34586;BME280;20816;50.950;11.108;2022-09-16T00:21:27;97668.31;;;12.48;100.00
34586;BME280;20816;50.950;11.108;2022-09-16T00:23:55;97672.91;;;12.43;100.00
34586;BME280;20816;50.950;11.108;2022-09-16T00:26:22;97677.25;;;12.44;100.00
34586;BME280;20816;50.950;11.108;2022-09-16T00:28:49;97675.28;;;12.49;100.00
34586;BME280;20816;50.950;11.108;2022-09-16T00:31:16;97671.56;;;12.53;100.00
34586;BME280;20816;50.950;11.108;2022-09-16T00:33:43;97675.94;;;12.54;100.00
34586;BME280;20816;50.950;11.108;2022-09-16T00:36:13;97668.03;;;12.54;100.00
34586;BME280;20816;50.950;11.108;2022-09-16T00:38:41;97670.88;;;12.50;100.00
34586;BME280;20816;50.950;11.108;2022-09-16T00:41:14;97672.56;;;12.51;100.00
34586;BME280;20816;50.950;11.108;2022-09-16T00:43:54;97673.31;;;12.54;100.00
34586;BME280;20816;50.950;11.108;2022-09-16T00:46:27;97677.13;;;12.47;100.00
34586;BME280;20816;50.950;11.108;2022-09-16T00:48:57;97665.00;;;12.43;100.00
34586;BME280;20816;50.950;11.108;2022-09-16T00:51:27;97672.84;;;12.45;100.00
34586;BME280;20816;50.950;11.108;2022-09-16T00:53:57;97673.56;;;12.48;100.00
34586;BME280;20816;50.950;11.108;2022-09-16T00:56:26;97670.16;;;12.46;100.00
34586;BME280;20816;50.950;11.108;2022-09-16T00:59:01;97665.75;;;12.47;100.00
34586;BME280;20816;50.950;11.108;2022-09-16T01:01:30;97667.53;;;12.46;100.00
34586;BME280;20816;50.950;11.108;2022-09-16T01:04:02;97664.28;;;12.40;100.00
34586;BME280;20816;50.950;11.108;2022-09-16T01:06:31;97672.66;;;12.49;100.00
34586;BME280;20816;50.950;11.108;2022-09-16T01:09:01;97671.97;;;12.44;100.00
34586;BME280;20816;50.950;11.108;2022-09-16T01:11:28;97672.97;;;12.42;100.00
34586;BME280;20816;50.950;11.108;2022-09-16T01:13:55;97668.56;;;12.42;100.00
34586;BME280;20816;50.950;11.108;2022-09-16T01:16:44;97672.13;;;12.41;100.00
34586;BME280;20816;50.950;11.108;2022-09-16T01:22:55;97672.50;;;12.52;100.00
34586;BME280;20816;50.950;11.108;2022-09-16T01:25:54;97676.72;;;12.36;100.00
34586;BME280;20816;50.950;11.108;2022-09-16T01:28:21;97671.28;;;12.41;100.00
34586;BME280;20816;50.950;11.108;2022-09-16T01:34:14;97670.59;;;12.35;100.00
34586;BME280;20816;50.950;11.108;2022-09-16T01:36:56;97665.16;;;12.40;100.00
34586;BME280;20816;50.950;11.108;2022-09-16T01:42:29;97661.72;;;12.38;100.00
34586;BME280;20816;50.950;11.108;2022-09-16T01:45:05;97665.41;;;12.34;100.00
34586;BME280;20816;50.950;11.108;2022-09-16T01:47:43;97659.13;;;12.37;100.00
34586;BME280;20816;50.950;11.108;2022-09-16T01:50:21;97656.84;;;12.29;100.00
34586;BME280;20816;50.950;11.108;2022-09-16T01:55:50;97667.34;;;12.30;100.00
34586;BME280;20816;50.950;11.108;2022-09-16T01:58:27;97660.69;;;12.22;100.00
34586;BME280;20816;50.950;11.108;2022-09-16T02:01:04;97661.53;;;12.22;100.00
34586;BME280;20816;50.950;11.108;2022-09-16T02:03:34;97660.09;;;12.15;100.00
34586;BME280;20816;50.950;11.108;2022-09-16T02:06:06;97659.25;;;12.15;100.00
34586;BME280;20816;50.950;11.108;2022-09-16T02:08:39;97660.09;;;12.15;100.00
34586;BME280;20816;50.950;11.108;2022-09-16T02:11:10;97649.50;;;12.17;100.00
34586;BME280;20816;50.950;11.108;2022-09-16T02:13:42;97659.25;;;12.15;100.00
34586;BME280;20816;50.950;11.108;2022-09-16T02:16:14;97666.41;;;12.11;100.00
34586;BME280;20816;50.950;11.108;2022-09-16T02:18:47;97658.72;;;12.06;100.00
34586;BME280;20816;50.950;11.108;2022-09-16T02:21:17;97662.47;;;12.01;100.00
34586;BME280;20816;50.950;11.108;2022-09-16T02:23:49;97661.22;;;12.10;100.00
34586;BME280;20816;50.950;11.108;2022-09-16T02:26:20;97654.47;;;12.02;100.00
34586;BME280;20816;50.950;11.108;2022-09-16T02:28:50;97661.34;;;12.06;100.00
34586;BME280;20816;50.950;11.108;2022-09-16T02:31:23;97668.81;;;11.95;100.00
34586;BME280;20816;50.950;11.108;2022-09-16T02:33:57;97653.94;;;11.94;100.00
34586;BME280;20816;50.950;11.108;2022-09-16T02:36:27;97654.22;;;11.88;100.00
34586;BME280;20816;50.950;11.108;2022-09-16T02:39:03;97658.75;;;11.85;100.00
34586;BME280;20816;50.950;11.108;2022-09-16T02:41:31;97663.72;;;11.92;100.00
34586;BME280;20816;50.950;11.108;2022-09-16T02:43:57;97663.88;;;11.88;100.00
34586;BME280;20816;50.950;11.108;2022-09-16T02:52:22;97645.34;;;11.69;100.00
34586;BME280;20816;50.950;11.108;2022-09-16T02:55:05;97649.75;;;11.68;100.00
34586;BME280;20816;50.950;11.108;2022-09-16T02:57:35;97660.34;;;11.67;100.00
34586;BME280;20816;50.950;11.108;2022-09-16T03:00:04;97664.41;;;11.54;100.00
34586;BME280;20816;50.950;11.108;2022-09-16T03:02:33;97658.09;;;11.58;100.00
34586;BME280;20816;50.950;11.108;2022-09-16T03:05:00;97653.16;;;11.50;100.00
34586;BME280;20816;50.950;11.108;2022-09-16T03:07:27;97651.22;;;11.54;100.00
34586;BME280;20816;50.950;11.108;2022-09-16T03:09:54;97651.38;;;11.50;100.00
34586;BME280;20816;50.950;11.108;2022-09-16T03:15:22;97652.41;;;11.46;100.00
34586;BME280;20816;50.950;11.108;2022-09-16T03:18:16;97650.75;;;11.44;100.00
34586;BME280;20816;50.950;11.108;2022-09-16T03:23:51;97644.88;;;11.37;100.00
34586;BME280;20816;50.950;11.108;2022-09-16T03:26:45;97647.09;;;11.26;100.00
34586;BME280;20816;50.950;11.108;2022-09-16T03:29:45;97655.59;;;11.33;100.00
34586;BME280;20816;50.950;11.108;2022-09-16T03:32:22;97655.84;;;11.27;100.00
34586;BME280;20816;50.950;11.108;2022-09-16T03:35:21;97655.09;;;11.23;100.00
34586;BME280;20816;50.950;11.108;2022-09-16T03:37:53;97656.16;;;11.19;100.00
34586;BME280;20816;50.950;11.108;2022-09-16T03:40:21;97652.72;;;11.17;100.00
34586;BME280;20816;50.950;11.108;2022-09-16T03:42:49;97652.72;;;11.17;100.00
34586;BME280;20816;50.950;11.108;2022-09-16T03:45:19;97656.94;;;11.21;100.00
34586;BME280;20816;50.950;11.108;2022-09-16T03:47:48;97651.25;;;11.10;100.00
34586;BME280;20816;50.950;11.108;2022-09-16T03:50:16;97648.84;;;11.04;100.00
34586;BME280;20816;50.950;11.108;2022-09-16T03:52:43;97648.63;;;11.10;100.00
34586;BME280;20816;50.950;11.108;2022-09-16T03:55:09;97649.47;;;11.10;100.00
34586;BME280;20816;50.950;11.108;2022-09-16T03:57:37;97652.75;;;11.15;100.00
34586;BME280;20816;50.950;11.108;2022-09-16T04:00:05;97648.13;;;11.22;100.00
34586;BME280;20816;50.950;11.108;2022-09-16T04:02:33;97651.38;;;11.29;100.00
34586;BME280;20816;50.950;11.108;2022-09-16T04:05:01;97647.09;;;11.26;100.00
34586;BME280;20816;50.950;11.108;2022-09-16T04:07:27;97643.53;;;11.27;100.00
34586;BME280;20816;50.950;11.108;2022-09-16T04:09:54;97639.75;;;11.34;100.00
34586;BME280;20816;50.950;11.108;2022-09-16T04:12:21;97646.97;;;11.29;100.00
34586;BME280;20816;50.950;11.108;2022-09-16T04:14:47;97654.06;;;11.27;100.00
34586;BME280;20816;50.950;11.108;2022-09-16T04:17:14;97647.09;;;11.26;100.00
34586;BME280;20816;50.950;11.108;2022-09-16T04:19:40;97650.53;;;11.28;100.00
34586;BME280;20816;50.950;11.108;2022-09-16T04:22:07;97651.00;;;11.38;100.00
34586;BME280;20816;50.950;11.108;2022-09-16T04:24:34;97658.97;;;11.36;100.00
34586;BME280;20816;50.950;11.108;2022-09-16T04:27:01;97659.03;;;11.35;100.00
34586;BME280;20816;50.950;11.108;2022-09-16T04:29:27;97655.41;;;11.37;100.00
34586;BME280;20816;50.950;11.108;2022-09-16T04:31:54;97651.31;;;11.30;100.00
34586;BME280;20816;50.950;11.108;2022-09-16T04:34:20;97660.66;;;11.37;100.00
34586;BME280;20816;50.950;11.108;2022-09-16T04:36:47;97643.97;;;11.38;100.00
34586;BME280;20816;50.950;11.108;2022-09-16T04:39:14;97645.03;;;11.34;100.00
34586;BME280;20816;50.950;11.108;2022-09-16T04:41:40;97652.97;;;11.33;100.00
34586;BME280;20816;50.950;11.108;2022-09-16T04:44:09;97650.44;;;11.30;100.00
34586;BME280;20816;50.950;11.108;2022-09-16T04:46:35;97654.78;;;11.31;100.00
34586;BME280;20816;50.950;11.108;2022-09-16T04:49:02;97653.88;;;11.32;100.00
34586;BME280;20816;50.950;11.108;2022-09-16T04:51:29;97656.41;;;11.35;100.00
34586;BME280;20816;50.950;11.108;2022-09-16T04:53:58;97646.34;;;11.22;100.00
34586;BME280;20816;50.950;11.108;2022-09-16T04:56:28;97649.13;;;11.19;100.00
34586;BME280;20816;50.950;11.108;2022-09-16T04:59:02;97646.41;;;11.21;100.00
34586;BME280;20816;50.950;11.108;2022-09-16T05:01:35;97649.03;;;11.21;100.00
34586;BME280;20816;50.950;11.108;2022-09-16T05:04:04;97649.19;;;11.18;100.00
34586;BME280;20816;50.950;11.108;2022-09-16T05:06:35;97643.69;;;11.24;100.00
34586;BME280;20816;50.950;11.108;2022-09-16T05:09:02;97653.31;;;11.23;100.00
34586;BME280;20816;50.950;11.108;2022-09-16T05:11:31;97648.94;;;11.24;100.00
34586;BME280;20816;50.950;11.108;2022-09-16T05:14:04;97647.34;;;11.20;100.00
34586;BME280;20816;50.950;11.108;2022-09-16T05:16:32;97651.56;;;11.24;100.00
34586;BME280;20816;50.950;11.108;2022-09-16T05:19:00;97655.78;;;11.28;100.00
34586;BME280;20816;50.950;11.108;2022-09-16T05:21:31;97657.63;;;11.26;100.00
34586;BME280;20816;50.950;11.108;2022-09-16T05:24:00;97660.34;;;11.23;100.00
34586;BME280;20816;50.950;11.108;2022-09-16T05:26:29;97663.81;;;11.25;100.00
34586;BME280;20816;50.950;11.108;2022-09-16T05:29:09;97662.75;;;11.29;100.00
34586;BME280;20816;50.950;11.108;2022-09-16T05:31:38;97650.38;;;11.31;100.00
34586;BME280;20816;50.950;11.108;2022-09-16T05:34:16;97657.50;;;11.29;100.00
34586;BME280;20816;50.950;11.108;2022-09-16T05:36:44;97652.28;;;11.28;100.00
34586;BME280;20816;50.950;11.108;2022-09-16T05:39:14;97656.47;;;11.33;100.00
34586;BME280;20816;50.950;11.108;2022-09-16T05:41:56;97657.00;;;11.41;100.00
34586;BME280;20816;50.950;11.108;2022-09-16T05:44:24;97654.78;;;11.52;100.00
34586;BME280;20816;50.950;11.108;2022-09-16T05:46:52;97645.59;;;11.63;100.00
34586;BME280;20816;50.950;11.108;2022-09-16T05:49:19;97648.66;;;11.74;100.00
34586;BME280;20816;50.950;11.108;2022-09-16T05:51:47;97648.41;;;11.80;100.00
34586;BME280;20816;50.950;11.108;2022-09-16T05:54:15;97652.78;;;11.79;100.00
34586;BME280;20816;50.950;11.108;2022-09-16T05:56:44;97661.84;;;11.94;100.00
34586;BME280;20816;50.950;11.108;2022-09-16T05:59:12;97657.34;;;11.98;100.00
34586;BME280;20816;50.950;11.108;2022-09-16T06:01:40;97656.19;;;12.03;100.00
34586;BME280;20816;50.950;11.108;2022-09-16T06:04:10;97657.25;;;11.99;100.00
34586;BME280;20816;50.950;11.108;2022-09-16T06:06:39;97662.59;;;11.98;100.00
34586;BME280;20816;50.950;11.108;2022-09-16T06:09:09;97655.56;;;11.98;100.00
34586;BME280;20816;50.950;11.108;2022-09-16T06:11:41;97653.31;;;11.89;100.00
34586;BME280;20816;50.950;11.108;2022-09-16T06:14:08;97652.06;;;11.98;100.00
34586;BME280;20816;50.950;11.108;2022-09-16T06:16:36;97650.66;;;12.10;100.00
34586;BME280;20816;50.950;11.108;2022-09-16T06:19:06;97658.94;;;12.21;100.00
34586;BME280;20816;50.950;11.108;2022-09-16T06:21:36;97645.56;;;12.46;100.00
34586;BME280;20816;50.950;11.108;2022-09-16T06:24:04;97648.16;;;12.66;100.00
34586;BME280;20816;50.950;11.108;2022-09-16T06:26:39;97634.72;;;12.72;100.00
34586;BME280;20816;50.950;11.108;2022-09-16T06:29:07;97644.41;;;12.90;100.00
34586;BME280;20816;50.950;11.108;2022-09-16T06:31:35;97640.81;;;13.10;100.00
34586;BME280;20816;50.950;11.108;2022-09-16T06:34:02;97634.06;;;13.24;100.00
34586;BME280;20816;50.950;11.108;2022-09-16T06:36:31;97635.59;;;13.46;100.00
34586;BME280;20816;50.950;11.108;2022-09-16T06:38:58;97637.31;;;13.65;100.00
34586;BME280;20816;50.950;11.108;2022-09-16T06:41:24;97637.13;;;13.87;100.00
34586;BME280;20816;50.950;11.108;2022-09-16T06:43:51;97643.81;;;13.94;98.03
34586;BME280;20816;50.950;11.108;2022-09-16T06:46:23;97641.16;;;14.11;98.01
34586;BME280;20816;50.950;11.108;2022-09-16T06:48:52;97637.41;;;13.81;98.83
34586;BME280;20816;50.950;11.108;2022-09-16T06:51:23;97643.06;;;13.56;99.36
34586;BME280;20816;50.950;11.108;2022-09-16T06:53:51;97634.75;;;13.46;100.00
34586;BME280;20816;50.950;11.108;2022-09-16T06:56:19;97639.91;;;13.30;100.00
34586;BME280;20816;50.950;11.108;2022-09-16T06:58:48;97638.81;;;13.15;100.00
34586;BME280;20816;50.950;11.108;2022-09-16T07:01:17;97645.97;;;13.13;100.00
34586;BME280;20816;50.950;11.108;2022-09-16T07:03:46;97631.44;;;13.24;100.00
34586;BME280;20816;50.950;11.108;2022-09-16T07:06:14;97638.97;;;13.12;100.00
34586;BME280;20816;50.950;11.108;2022-09-16T07:08:42;97630.56;;;13.23;100.00
34586;BME280;20816;50.950;11.108;2022-09-16T07:11:14;97636.41;;;13.30;100.00
34586;BME280;20816;50.950;11.108;2022-09-16T07:13:42;97638.78;;;13.36;100.00
34586;BME280;20816;50.950;11.108;2022-09-16T07:16:11;97642.66;;;13.46;100.00
34586;BME280;20816;50.950;11.108;2022-09-16T07:18:40;97646.53;;;13.39;100.00
34586;BME280;20816;50.950;11.108;2022-09-16T07:21:11;97645.88;;;13.34;100.00
34586;BME280;20816;50.950;11.108;2022-09-16T07:23:39;97651.31;;;13.31;100.00
34586;BME280;20816;50.950;11.108;2022-09-16T07:26:21;97652.09;;;13.14;100.00
34586;BME280;20816;50.950;11.108;2022-09-16T07:28:49;97655.38;;;13.00;100.00
34586;BME280;20816;50.950;11.108;2022-09-16T07:31:19;97655.94;;;13.07;100.00
34586;BME280;20816;50.950;11.108;2022-09-16T07:33:48;97652.22;;;13.11;100.00
34586;BME280;20816;50.950;11.108;2022-09-16T07:36:21;97656.03;;;13.05;100.00
34586;BME280;20816;50.950;11.108;2022-09-16T07:38:49;97653.81;;;12.96;99.79
34586;BME280;20816;50.950;11.108;2022-09-16T07:41:21;97656.63;;;13.10;98.65
34586;BME280;20816;50.950;11.108;2022-09-16T07:43:48;97665.84;;;13.02;99.32
34586;BME280;20816;50.950;11.108;2022-09-16T07:46:17;97665.78;;;12.84;100.00
34586;BME280;20816;50.950;11.108;2022-09-16T07:48:47;97667.94;;;12.95;99.39
34586;BME280;20816;50.950;11.108;2022-09-16T07:51:18;97671.19;;;13.00;99.13
34586;BME280;20816;50.950;11.108;2022-09-16T07:53:46;97676.78;;;13.13;98.32
34586;BME280;20816;50.950;11.108;2022-09-16T07:56:18;97680.50;;;13.28;97.04
34586;BME280;20816;50.950;11.108;2022-09-16T07:58:46;97670.81;;;13.28;95.31
34586;BME280;20816;50.950;11.108;2022-09-16T08:01:14;97675.41;;;13.42;96.47
34586;BME280;20816;50.950;11.108;2022-09-16T08:03:42;97670.59;;;13.50;95.63
34586;BME280;20816;50.950;11.108;2022-09-16T08:06:18;97677.19;;;13.60;95.61
34586;BME280;20816;50.950;11.108;2022-09-16T08:08:45;97670.25;;;13.58;94.19
34586;BME280;20816;50.950;11.108;2022-09-16T08:11:13;97667.41;;;13.80;92.53
34586;BME280;20816;50.950;11.108;2022-09-16T08:13:41;97668.72;;;13.71;91.92
34586;BME280;20816;50.950;11.108;2022-09-16T08:16:17;97672.59;;;13.64;92.25
34586;BME280;20816;50.950;11.108;2022-09-16T08:18:48;97671.47;;;13.51;93.42
34586;BME280;20816;50.950;11.108;2022-09-16T08:21:19;97660.41;;;13.79;91.58
34586;BME280;20816;50.950;11.108;2022-09-16T08:23:46;97665.06;;;13.91;90.78
34586;BME280;20816;50.950;11.108;2022-09-16T08:26:13;97666.63;;;13.95;90.09
34586;BME280;20816;50.950;11.108;2022-09-16T08:28:42;97663.22;;;13.93;90.00
34586;BME280;20816;50.950;11.108;2022-09-16T08:31:28;97661.66;;;13.89;89.38
34586;BME280;20816;50.950;11.108;2022-09-16T08:33:56;97663.81;;;14.15;88.27
34586;BME280;20816;50.950;11.108;2022-09-16T08:36:23;97674.41;;;14.50;87.86
34586;BME280;20816;50.950;11.108;2022-09-16T08:38:54;97660.84;;;15.05;87.16
34586;BME280;20816;50.950;11.108;2022-09-16T08:47:26;97671.13;;;14.62;88.05
34586;BME280;20816;50.950;11.108;2022-09-16T08:49:59;97678.06;;;14.80;88.84
34586;BME280;20816;50.950;11.108;2022-09-16T08:52:31;97678.19;;;14.62;88.53
34586;BME280;20816;50.950;11.108;2022-09-16T08:55:07;97675.38;;;14.65;87.82
34586;BME280;20816;50.950;11.108;2022-09-16T08:57:42;97674.94;;;14.56;87.50
34586;BME280;20816;50.950;11.108;2022-09-16T09:00:14;97674.25;;;14.53;87.68
34586;BME280;20816;50.950;11.108;2022-09-16T09:02:49;97674.66;;;14.78;87.86
34586;BME280;20816;50.950;11.108;2022-09-16T09:05:31;97670.56;;;14.89;86.75
34586;BME280;20816;50.950;11.108;2022-09-16T09:08:16;97672.22;;;14.91;86.09
34586;BME280;20816;50.950;11.108;2022-09-16T09:10:50;97668.34;;;14.97;85.53
34586;BME280;20816;50.950;11.108;2022-09-16T09:16:20;97665.41;;;15.34;85.85
34586;BME280;20816;50.950;11.108;2022-09-16T09:19:24;97675.03;;;15.04;83.89
34586;BME280;20816;50.950;11.108;2022-09-16T09:22:23;97657.25;;;15.06;84.54
34586;BME280;20816;50.950;11.108;2022-09-16T09:25:06;97655.63;;;15.82;80.60
34586;BME280;20816;50.950;11.108;2022-09-16T09:27:53;97648.44;;;16.29;79.51
34586;BME280;20816;50.950;11.108;2022-09-16T09:30:26;97651.59;;;16.21;78.08
34586;BME280;20816;50.950;11.108;2022-09-16T09:39:09;97659.41;;;15.47;81.07
34586;BME280;20816;50.950;11.108;2022-09-16T09:41:43;97648.69;;;15.80;79.98
34586;BME280;20816;50.950;11.108;2022-09-16T09:44:24;97650.97;;;15.56;80.86
34586;BME280;20816;50.950;11.108;2022-09-16T09:46:57;97654.97;;;15.63;82.04
34586;BME280;20816;50.950;11.108;2022-09-16T09:52:16;97651.19;;;16.13;81.06
34586;BME280;20816;50.950;11.108;2022-09-16T09:54:48;97652.09;;;15.97;80.96
34586;BME280;20816;50.950;11.108;2022-09-16T09:57:26;97656.19;;;15.87;80.93
34586;BME280;20816;50.950;11.108;2022-09-16T10:00:10;97655.31;;;15.57;82.02
34586;BME280;20816;50.950;11.108;2022-09-16T10:02:40;97648.53;;;15.83;82.74
34586;BME280;20816;50.950;11.108;2022-09-16T10:05:28;97651.28;;;15.81;81.74
34586;BME280;20816;50.950;11.108;2022-09-16T10:07:57;97644.16;;;16.12;80.10
34586;BME280;20816;50.950;11.108;2022-09-16T10:10:28;97644.00;;;16.15;78.47
34586;BME280;20816;50.950;11.108;2022-09-16T10:13:08;97642.38;;;16.71;78.92
34586;BME280;20816;50.950;11.108;2022-09-16T10:15:35;97636.78;;;16.90;77.00
34586;BME280;20816;50.950;11.108;2022-09-16T10:18:10;97638.75;;;16.58;79.51
34586;BME280;20816;50.950;11.108;2022-09-16T10:20:41;97646.00;;;15.50;88.87
34586;BME280;20816;50.950;11.108;2022-09-16T10:23:11;97649.59;;;15.33;94.32
34586;BME280;20816;50.950;11.108;2022-09-16T10:25:39;97657.13;;;15.09;98.89
34586;BME280;20816;50.950;11.108;2022-09-16T10:28:21;97654.66;;;14.73;97.43
34586;BME280;20816;50.950;11.108;2022-09-16T10:30:51;97648.84;;;15.15;95.85
34586;BME280;20816;50.950;11.108;2022-09-16T10:33:45;97643.97;;;15.07;94.43
34586;BME280;20816;50.950;11.108;2022-09-16T10:36:22;97637.63;;;14.94;96.86
34586;BME280;20816;50.950;11.108;2022-09-16T10:39:00;97645.91;;;15.04;98.48
34586;BME280;20816;50.950;11.108;2022-09-16T10:41:42;97650.41;;;14.70;100.00
34586;BME280;20816;50.950;11.108;2022-09-16T10:44:30;97657.00;;;14.46;99.45
34586;BME280;20816;50.950;11.108;2022-09-16T10:47:04;97645.19;;;14.01;98.99
34586;BME280;20816;50.950;11.108;2022-09-16T10:49:37;97636.00;;;14.08;99.31
34586;BME280;20816;50.950;11.108;2022-09-16T10:52:25;97638.19;;;14.00;100.00
34586;BME280;20816;50.950;11.108;2022-09-16T10:54:55;97635.66;;;14.31;100.00
34586;BME280;20816;50.950;11.108;2022-09-16T10:57:30;97629.81;;;15.24;97.27
34586;BME280;20816;50.950;11.108;2022-09-16T11:00:17;97618.25;;;16.17;93.72
34586;BME280;20816;50.950;11.108;2022-09-16T11:14:26;97612.78;;;17.32;85.02
34586;BME280;20816;50.950;11.108;2022-09-16T11:20:20;97617.66;;;16.12;93.08
34586;BME280;20816;50.950;11.108;2022-09-16T11:23:05;97621.72;;;15.73;95.44
34586;BME280;20816;50.950;11.108;2022-09-16T11:25:47;97628.56;;;15.46;97.67
34586;BME280;20816;50.950;11.108;2022-09-16T11:32:08;97634.91;;;15.27;96.46
34586;BME280;20816;50.950;11.108;2022-09-16T11:34:28;97648.72;;;14.85;98.60
34586;BME280;20816;50.950;11.108;2022-09-16T11:37:58;97649.25;;;14.41;100.00
34586;BME280;20816;50.950;11.108;2022-09-16T11:56:28;97633.75;;;14.00;100.00
34586;BME280;20816;50.950;11.108;2022-09-16T12:01:41;97627.38;;;15.35;99.68
34586;BME280;20816;50.950;11.108;2022-09-16T12:04:20;97619.50;;;15.81;91.29
34586;BME280;20816;50.950;11.108;2022-09-16T12:06:59;97613.06;;;16.44;89.29
34586;BME280;20816;50.950;11.108;2022-09-16T12:09:49;97606.16;;;16.41;84.75
34586;BME280;20816;50.950;11.108;2022-09-16T12:12:29;97597.34;;;16.69;84.88
34586;BME280;20816;50.950;11.108;2022-09-16T12:15:01;97586.91;;;17.36;83.56
34586;BME280;20816;50.950;11.108;2022-09-16T12:17:34;97585.22;;;17.75;82.51
34586;BME280;20816;50.950;11.108;2022-09-16T12:20:28;97585.22;;;17.75;82.15
34586;BME280;20816;50.950;11.108;2022-09-16T12:23:04;97590.50;;;18.27;82.12
34586;BME280;20816;50.950;11.108;2022-09-16T12:26:00;97586.03;;;18.02;80.23
34586;BME280;20816;50.950;11.108;2022-09-16T12:28:35;97590.94;;;18.08;79.61
34586;BME280;20816;50.950;11.108;2022-09-16T12:33:51;97585.16;;;17.76;79.44
34586;BME280;20816;50.950;11.108;2022-09-16T12:36:24;97587.44;;;17.68;80.82
34586;BME280;20816;50.950;11.108;2022-09-16T12:38:57;97590.50;;;18.02;78.74
34586;BME280;20816;50.950;11.108;2022-09-16T12:58:08;97600.25;;;16.36;87.21
34586;BME280;20816;50.950;11.108;2022-09-16T13:03:21;97613.31;;;14.88;95.34
34586;BME280;20816;50.950;11.108;2022-09-16T13:05:51;97602.56;;;14.42;100.00
34586;BME280;20816;50.950;11.108;2022-09-16T13:08:25;97610.19;;;14.30;100.00
34586;BME280;20816;50.950;11.108;2022-09-16T13:10:56;97599.59;;;14.30;100.00
34586;BME280;20816;50.950;11.108;2022-09-16T13:13:49;97597.41;;;14.39;100.00
34586;BME280;20816;50.950;11.108;2022-09-16T13:16:33;97597.25;;;14.42;100.00
34586;BME280;20816;50.950;11.108;2022-09-16T13:21:57;97576.13;;;15.36;100.00
34586;BME280;20816;50.950;11.108;2022-09-16T13:24:39;97576.41;;;15.78;94.20
34586;BME280;20816;50.950;11.108;2022-09-16T13:27:40;97568.91;;;16.14;94.95
34586;BME280;20816;50.950;11.108;2022-09-16T13:30:28;97575.25;;;16.40;91.79
34586;BME280;20816;50.950;11.108;2022-09-16T13:40:51;97555.00;;;16.53;89.84
34586;BME280;20816;50.950;11.108;2022-09-16T13:43:29;97550.25;;;16.44;90.59
34586;BME280;20816;50.950;11.108;2022-09-16T13:46:05;97553.38;;;16.08;90.91
34586;BME280;20816;50.950;11.108;2022-09-16T13:48:40;97546.31;;;15.79;89.28
34586;BME280;20816;50.950;11.108;2022-09-16T13:51:13;97545.69;;;15.59;90.18
34586;BME280;20816;50.950;11.108;2022-09-16T13:53:50;97541.34;;;16.03;88.54
34586;BME280;20816;50.950;11.108;2022-09-16T13:56:48;97542.41;;;16.14;89.04
34586;BME280;20816;50.950;11.108;2022-09-16T13:59:33;97547.22;;;16.08;90.05
34586;BME280;20816;50.950;11.108;2022-09-16T14:02:15;97543.06;;;16.18;89.98
34586;BME280;20816;50.950;11.108;2022-09-16T14:05:19;97530.19;;;16.26;88.65
34586;BME280;20816;50.950;11.108;2022-09-16T14:11:09;97532.56;;;15.42;88.35
34586;BME280;20816;50.950;11.108;2022-09-16T14:13:42;97546.94;;;15.22;89.10
34586;BME280;20816;50.950;11.108;2022-09-16T14:19:00;97545.13;;;14.93;90.84
34586;BME280;20816;50.950;11.108;2022-09-16T14:21:30;97552.78;;;14.97;93.27
34586;BME280;20816;50.950;11.108;2022-09-16T14:24:16;97543.56;;;15.04;92.60
34586;BME280;20816;50.950;11.108;2022-09-16T14:26:54;97549.56;;;15.08;92.64
34586;BME280;20816;50.950;11.108;2022-09-16T14:29:23;97545.63;;;14.99;89.33
34586;BME280;20816;50.950;11.108;2022-09-16T14:31:52;97552.97;;;14.78;88.31
34586;BME280;20816;50.950;11.108;2022-09-16T14:34:46;97551.84;;;14.51;87.78
34586;BME280;20816;50.950;11.108;2022-09-16T14:37:19;97552.78;;;14.66;88.28
34586;BME280;20816;50.950;11.108;2022-09-16T14:39:47;97546.63;;;14.65;87.73
34586;BME280;20816;50.950;11.108;2022-09-16T14:42:20;97533.56;;;14.46;87.92
34586;BME280;20816;50.950;11.108;2022-09-16T14:44:51;97537.41;;;14.56;87.61
34586;BME280;20816;50.950;11.108;2022-09-16T14:47:31;97534.34;;;14.64;86.88
34586;BME280;20816;50.950;11.108;2022-09-16T14:50:29;97530.72;;;14.82;88.51
34586;BME280;20816;50.950;11.108;2022-09-16T14:53:02;97524.81;;;14.77;88.86
34586;BME280;20816;50.950;11.108;2022-09-16T14:55:31;97528.22;;;14.79;86.71
34586;BME280;20816;50.950;11.108;2022-09-16T14:57:59;97527.03;;;14.69;85.34
34586;BME280;20816;50.950;11.108;2022-09-16T15:00:50;97513.53;;;14.90;85.94
34586;BME280;20816;50.950;11.108;2022-09-16T15:03:22;97516.66;;;15.12;84.34
34586;BME280;20816;50.950;11.108;2022-09-16T15:05:51;97520.72;;;15.33;82.68
34586;BME280;20816;50.950;11.108;2022-09-16T15:08:40;97521.69;;;15.32;81.47
34586;BME280;20816;50.950;11.108;2022-09-16T15:11:16;97517.03;;;15.36;81.92
34586;BME280;20816;50.950;11.108;2022-09-16T15:14:05;97508.66;;;15.43;81.31
34586;BME280;20816;50.950;11.108;2022-09-16T15:16:39;97499.94;;;15.41;80.27